Time;durP1;ratioP1;P1;durP2;ratioP2;P2;SDS_P1;SDS_P2;PMS_P1;PMS_P2;Temp;Humidity;BMP_temperature;BMP_pressure;BME280_temperature;BME280_humidity;BME280_pressure;Samples;Min_cycle;Max_cycle;Signal;HPM_P1;HPM_P2
2023/12/06 00:01:46;;;;;;;5.05;1.27;;;6.10;99.90;;;;;;5022563;28;20050;-82
2023/12/06 00:04:14;;;;;;;2.40;1.30;;;6.00;99.90;;;;;;5021738;28;20056;-83
2023/12/06 00:06:41;;;;;;;4.07;1.40;;;6.10;99.90;;;;;;5011235;28;20093;-81
2023/12/06 00:09:07;;;;;;;2.83;1.35;;;6.10;99.90;;;;;;5026652;28;20048;-83
2023/12/06 00:11:34;;;;;;;5.15;1.23;;;6.10;99.90;;;;;;5021321;28;20050;-82
2023/12/06 00:14:01;;;;;;;7.45;1.33;;;6.10;99.90;;;;;;5021373;28;20521;-83
2023/12/06 00:16:27;;;;;;;5.05;1.55;;;6.20;99.90;;;;;;5018303;28;20050;-83
2023/12/06 00:18:54;;;;;;;3.70;1.13;;;6.20;99.90;;;;;;5019475;28;20054;-83
2023/12/06 00:21:22;;;;;;;7.03;1.77;;;6.20;99.90;;;;;;5020550;28;20072;-82
2023/12/06 00:23:49;;;;;;;2.70;1.15;;;6.20;99.90;;;;;;5032410;28;20053;-83
2023/12/06 00:26:16;;;;;;;2.92;1.08;;;6.20;99.90;;;;;;5020159;28;20128;-81
2023/12/06 00:28:42;;;;;;;5.47;1.35;;;6.20;99.90;;;;;;5012336;28;20517;-82
2023/12/06 00:31:09;;;;;;;5.55;1.40;;;6.20;99.90;;;;;;5020125;28;20080;-81
2023/12/06 00:33:36;;;;;;;2.78;1.38;;;6.20;99.90;;;;;;5017201;28;20042;-81
2023/12/06 00:36:03;;;;;;;3.90;1.15;;;6.30;99.90;;;;;;5021192;28;20497;-84
2023/12/06 00:38:31;;;;;;;4.80;1.35;;;6.20;99.90;;;;;;4999301;28;20490;-83
2023/12/06 00:41:00;;;;;;;4.65;1.67;;;6.20;99.90;;;;;;5020695;28;20042;-83
2023/12/06 00:43:26;;;;;;;5.60;1.55;;;6.30;99.90;;;;;;5013580;28;20069;-83
2023/12/06 00:45:54;;;;;;;5.07;2.20;;;6.30;99.90;;;;;;5019780;28;20075;-81
2023/12/06 00:48:20;;;;;;;7.28;1.45;;;6.20;99.90;;;;;;5015629;28;20045;-79
2023/12/06 00:50:47;;;;;;;2.38;1.33;;;6.30;99.90;;;;;;5015780;28;20050;-83
2023/12/06 00:53:14;;;;;;;7.32;1.55;;;6.30;99.90;;;;;;5019127;28;20317;-82
2023/12/06 00:55:41;;;;;;;5.07;1.40;;;6.30;99.90;;;;;;5012673;28;20054;-83
2023/12/06 00:58:07;;;;;;;6.00;1.40;;;6.30;99.90;;;;;;5018684;28;20046;-83
2023/12/06 01:00:34;;;;;;;5.75;1.52;;;6.30;99.90;;;;;;5013239;28;20492;-82
2023/12/06 01:03:01;;;;;;;8.68;1.67;;;6.30;99.90;;;;;;5010174;28;20441;-80
2023/12/06 01:05:28;;;;;;;3.22;1.58;;;6.30;99.90;;;;;;4999076;28;20502;-82
2023/12/06 01:07:55;;;;;;;2.83;1.38;;;6.30;99.90;;;;;;5026706;28;20049;-81
2023/12/06 01:10:23;;;;;;;10.50;1.98;;;6.30;99.90;;;;;;5014148;28;20050;-82
2023/12/06 01:12:50;;;;;;;12.82;2.10;;;6.30;99.90;;;;;;5020631;28;20050;-82
2023/12/06 01:15:17;;;;;;;7.03;1.58;;;6.30;99.90;;;;;;5018394;28;20368;-83
2023/12/06 01:17:45;;;;;;;4.90;1.30;;;6.30;99.90;;;;;;5021098;28;20045;-81
2023/12/06 01:20:13;;;;;;;7.40;1.77;;;6.30;99.90;;;;;;5020644;28;20062;-83
2023/12/06 01:22:39;;;;;;;7.78;2.00;;;6.30;99.90;;;;;;5021004;28;20057;-82
2023/12/06 01:25:07;;;;;;;4.63;1.30;;;6.30;99.90;;;;;;5012421;28;20041;-83
2023/12/06 01:27:35;;;;;;;5.22;1.30;;;6.30;99.90;;;;;;5011366;28;20046;-83
2023/12/06 01:30:04;;;;;;;6.05;1.88;;;6.30;99.90;;;;;;5018075;28;20081;-82
2023/12/06 01:32:39;;;;;;;7.53;3.30;;;6.30;99.90;;;;;;5011427;28;20050;-83
2023/12/06 01:35:07;;;;;;;6.97;1.75;;;6.40;99.90;;;;;;5000778;28;20049;-83
2023/12/06 01:37:33;;;;;;;4.10;1.20;;;6.40;99.90;;;;;;5012053;28;20057;-83
2023/12/06 01:40:00;;;;;;;6.50;1.80;;;6.40;99.90;;;;;;5014507;28;20050;-83
2023/12/06 01:42:27;;;;;;;4.75;1.33;;;6.40;99.90;;;;;;5017783;28;20054;-83
2023/12/06 01:44:54;;;;;;;6.20;1.55;;;6.30;99.90;;;;;;5016132;28;20432;-83
2023/12/06 01:47:24;;;;;;;2.72;1.50;;;6.30;99.90;;;;;;5017811;28;20046;-82
2023/12/06 01:49:54;;;;;;;5.53;1.40;;;6.30;99.90;;;;;;5014496;28;20052;-83
2023/12/06 01:52:21;;;;;;;6.03;1.65;;;6.30;99.90;;;;;;5013974;28;20050;-83
2023/12/06 01:54:48;;;;;;;9.27;1.60;;;6.30;99.90;;;;;;4998416;28;20058;-81
2023/12/06 01:57:16;;;;;;;4.72;1.60;;;6.30;99.90;;;;;;5004068;28;20054;-82
2023/12/06 01:59:43;;;;;;;6.82;1.73;;;6.30;99.90;;;;;;5015981;28;20141;-81
2023/12/06 02:02:13;;;;;;;4.97;1.42;;;6.30;99.90;;;;;;5006233;28;20105;-83
2023/12/06 02:04:40;;;;;;;7.00;1.63;;;6.30;99.90;;;;;;5017059;28;20046;-83
2023/12/06 02:07:07;;;;;;;3.63;1.50;;;6.30;99.90;;;;;;5000554;28;20038;-83
2023/12/06 02:09:34;;;;;;;3.50;1.55;;;6.30;99.90;;;;;;5014864;28;20510;-82
2023/12/06 02:12:01;;;;;;;4.18;1.70;;;6.30;99.90;;;;;;5020995;28;20072;-83
2023/12/06 02:14:33;;;;;;;2.88;1.38;;;6.30;99.90;;;;;;5014191;28;20049;-82
2023/12/06 02:17:05;;;;;;;5.85;1.95;;;6.30;99.90;;;;;;5008271;28;20054;-80
2023/12/06 02:19:32;;;;;;;5.43;1.60;;;6.30;99.90;;;;;;5016298;28;20567;-83
2023/12/06 02:21:59;;;;;;;12.73;1.77;;;6.30;99.90;;;;;;5022541;28;20133;-83
2023/12/06 02:24:32;;;;;;;2.90;1.40;;;6.30;99.90;;;;;;4996705;28;20544;-82
2023/12/06 02:26:59;;;;;;;4.20;1.60;;;6.30;99.90;;;;;;5013700;28;20050;-81
2023/12/06 02:29:25;;;;;;;2.58;1.30;;;6.30;99.90;;;;;;5015611;28;20050;-81
2023/12/06 02:31:52;;;;;;;5.43;2.10;;;6.30;99.90;;;;;;4998295;28;20481;-82
2023/12/06 02:34:25;;;;;;;3.25;1.40;;;6.30;99.90;;;;;;5013354;28;20501;-82
2023/12/06 02:36:58;;;;;;;6.07;1.60;;;6.30;99.90;;;;;;5020112;28;20109;-83
2023/12/06 02:39:29;;;;;;;3.63;1.27;;;6.30;99.90;;;;;;5018236;28;20575;-83
2023/12/06 02:41:56;;;;;;;3.25;1.30;;;6.30;99.90;;;;;;5015097;28;20049;-83
2023/12/06 02:44:23;;;;;;;5.57;1.52;;;6.30;99.90;;;;;;5020567;28;20485;-83
2023/12/06 02:46:50;;;;;;;3.17;1.55;;;6.30;99.90;;;;;;5013676;28;20114;-82
2023/12/06 02:49:16;;;;;;;7.95;1.75;;;6.30;99.90;;;;;;5016977;28;20237;-81
2023/12/06 02:51:44;;;;;;;7.55;1.58;;;6.30;99.90;;;;;;5016527;28;20049;-82
2023/12/06 02:54:10;;;;;;;4.38;1.70;;;6.30;99.90;;;;;;5017355;28;20048;-83
2023/12/06 02:56:37;;;;;;;3.00;1.50;;;6.30;99.90;;;;;;5002724;28;20567;-82
2023/12/06 02:59:04;;;;;;;3.85;1.65;;;6.20;99.90;;;;;;5018980;28;20093;-83
2023/12/06 03:01:31;;;;;;;4.53;1.40;;;6.20;99.90;;;;;;5017761;28;20056;-84
2023/12/06 03:03:57;;;;;;;6.63;2.08;;;6.20;99.90;;;;;;5024765;28;20043;-83
2023/12/06 03:06:24;;;;;;;6.03;1.95;;;6.20;99.90;;;;;;5008338;28;20577;-83
2023/12/06 03:08:51;;;;;;;7.60;1.88;;;6.10;99.90;;;;;;5018386;28;20133;-82
2023/12/06 03:11:18;;;;;;;7.68;1.60;;;6.10;99.90;;;;;;5029360;28;20038;-83
2023/12/06 03:13:44;;;;;;;9.57;1.70;;;6.10;99.90;;;;;;5025439;28;20513;-80
2023/12/06 03:16:11;;;;;;;4.15;1.73;;;6.10;99.90;;;;;;5010467;28;20050;-83
2023/12/06 03:18:38;;;;;;;7.22;1.63;;;6.10;99.90;;;;;;5008740;28;20085;-83
2023/12/06 03:21:06;;;;;;;3.22;1.40;;;6.10;99.90;;;;;;5015174;28;20045;-83
2023/12/06 03:23:33;;;;;;;4.82;2.03;;;6.10;99.90;;;;;;5016268;28;20064;-83
2023/12/06 03:26:00;;;;;;;5.40;1.67;;;6.10;99.90;;;;;;5014872;28;20053;-85
2023/12/06 03:28:27;;;;;;;3.03;1.40;;;6.10;99.90;;;;;;5011033;28;20080;-81
2023/12/06 03:30:54;;;;;;;8.82;1.88;;;6.10;99.90;;;;;;5013805;28;20129;-83
2023/12/06 03:33:21;;;;;;;6.47;1.60;;;6.10;99.90;;;;;;5012506;28;20497;-82
2023/12/06 03:35:47;;;;;;;7.63;1.50;;;6.10;99.90;;;;;;5011360;28;20053;-82
2023/12/06 03:38:14;;;;;;;3.65;1.65;;;6.10;99.90;;;;;;5017543;28;20056;-83
2023/12/06 03:40:41;;;;;;;4.88;1.63;;;6.10;99.90;;;;;;5014982;28;20058;-83
2023/12/06 03:43:08;;;;;;;2.55;1.70;;;6.10;99.90;;;;;;5017145;28;20050;-82
2023/12/06 03:45:35;;;;;;;4.32;1.50;;;6.10;99.90;;;;;;5016119;28;20489;-83
2023/12/06 03:48:02;;;;;;;6.28;1.63;;;6.10;99.90;;;;;;5018288;28;20101;-81
2023/12/06 03:50:29;;;;;;;2.30;1.35;;;6.10;99.90;;;;;;5023190;28;20046;-83
2023/12/06 03:52:55;;;;;;;5.93;1.23;;;6.10;99.90;;;;;;5017882;28;20050;-83
2023/12/06 03:55:22;;;;;;;4.53;1.83;;;6.10;99.90;;;;;;5019417;28;20050;-81
2023/12/06 03:57:49;;;;;;;3.00;1.30;;;6.10;99.90;;;;;;5013188;28;20429;-84
2023/12/06 04:00:16;;;;;;;6.88;1.48;;;6.10;99.90;;;;;;5014785;28;20057;-82
2023/12/06 04:02:42;;;;;;;3.78;1.60;;;6.10;99.90;;;;;;5017995;28;20100;-83
2023/12/06 04:05:09;;;;;;;3.05;1.42;;;6.10;99.90;;;;;;5021110;28;20086;-83
2023/12/06 04:07:37;;;;;;;3.10;1.08;;;6.10;99.90;;;;;;5015012;28;20042;-83
2023/12/06 04:10:05;;;;;;;2.70;1.23;;;6.10;99.90;;;;;;5020121;28;20093;-83
2023/12/06 04:12:31;;;;;;;2.88;1.48;;;6.10;99.90;;;;;;5017707;28;20050;-84
2023/12/06 04:14:58;;;;;;;4.97;1.70;;;6.10;99.90;;;;;;5015228;28;20069;-83
2023/12/06 04:17:25;;;;;;;3.85;1.25;;;6.10;99.90;;;;;;5019717;28;20041;-83
2023/12/06 04:19:52;;;;;;;3.92;1.50;;;6.10;99.90;;;;;;5022156;28;20049;-83
2023/12/06 04:22:19;;;;;;;4.65;1.30;;;6.20;99.90;;;;;;5001139;28;20049;-83
2023/12/06 04:24:46;;;;;;;2.08;1.30;;;6.20;99.90;;;;;;5011154;28;20042;-82
2023/12/06 04:27:13;;;;;;;2.33;1.25;;;6.10;99.90;;;;;;5018087;28;20046;-83
2023/12/06 04:29:40;;;;;;;2.50;1.05;;;6.10;99.90;;;;;;5025983;28;20042;-83
2023/12/06 04:32:07;;;;;;;2.08;1.10;;;6.10;99.90;;;;;;5014267;28;20042;-80
2023/12/06 04:34:46;;;;;;;3.47;1.40;;;6.10;99.90;;;;;;5021766;28;20048;-83
2023/12/06 04:37:13;;;;;;;1.83;1.20;;;6.10;99.90;;;;;;5020774;28;20132;-83
2023/12/06 04:39:40;;;;;;;2.22;1.50;;;6.10;99.90;;;;;;5018969;28;20101;-82
2023/12/06 04:42:07;;;;;;;2.28;1.05;;;6.10;99.90;;;;;;5019616;28;20050;-83
2023/12/06 04:44:34;;;;;;;3.70;1.77;;;6.10;99.90;;;;;;5013984;28;20525;-83
2023/12/06 04:47:00;;;;;;;2.83;1.17;;;6.10;99.90;;;;;;5014207;28;20042;-83
2023/12/06 04:49:27;;;;;;;2.05;1.00;;;6.10;99.90;;;;;;5012379;28;20050;-83
2023/12/06 04:51:54;;;;;;;3.50;0.93;;;6.10;99.90;;;;;;5013203;28;20110;-83
2023/12/06 04:54:23;;;;;;;2.10;0.90;;;6.00;99.90;;;;;;5019289;28;20046;-83
2023/12/06 04:56:50;;;;;;;1.53;0.83;;;6.00;99.90;;;;;;5001904;28;20046;-83
2023/12/06 04:59:17;;;;;;;1.83;1.15;;;6.00;99.90;;;;;;5015382;28;20285;-82
2023/12/06 05:01:44;;;;;;;1.52;1.13;;;6.00;99.90;;;;;;5022439;28;20038;-83
2023/12/06 05:04:11;;;;;;;1.52;1.10;;;6.10;99.90;;;;;;4996809;28;21003;-83
2023/12/06 05:06:38;;;;;;;1.00;0.90;;;6.10;99.90;;;;;;5020621;28;20042;-83
2023/12/06 05:09:04;;;;;;;2.97;1.10;;;6.10;99.90;;;;;;5017738;28;20397;-84
2023/12/06 05:11:31;;;;;;;1.58;0.90;;;6.10;99.90;;;;;;5029318;28;20077;-83
2023/12/06 05:13:58;;;;;;;2.45;1.25;;;6.10;99.90;;;;;;5017892;28;20096;-82
2023/12/06 05:16:25;;;;;;;3.38;1.23;;;6.10;99.90;;;;;;4993688;28;20042;-83
2023/12/06 05:18:52;;;;;;;2.58;1.30;;;6.10;99.90;;;;;;5026362;28;20036;-83
2023/12/06 05:21:18;;;;;;;2.42;1.13;;;6.10;99.90;;;;;;5014902;28;20046;-81
2023/12/06 05:23:45;;;;;;;2.65;1.20;;;6.10;99.90;;;;;;5013914;28;20481;-81
2023/12/06 05:26:13;;;;;;;1.75;1.00;;;6.10;99.90;;;;;;5012696;28;20062;-81
2023/12/06 05:28:40;;;;;;;3.20;1.30;;;6.10;99.90;;;;;;5015098;28;20072;-83
2023/12/06 05:31:07;;;;;;;4.72;1.55;;;6.00;99.90;;;;;;5014947;28;20042;-83
2023/12/06 05:33:33;;;;;;;3.15;1.02;;;6.00;99.90;;;;;;5015341;28;20057;-81
2023/12/06 05:36:00;;;;;;;6.00;1.20;;;6.00;99.90;;;;;;4996070;28;20502;-82
2023/12/06 05:38:27;;;;;;;2.33;0.95;;;5.90;99.90;;;;;;5017829;28;20046;-83
2023/12/06 05:40:55;;;;;;;3.97;1.20;;;5.90;99.90;;;;;;5010088;28;20058;-81
2023/12/06 05:43:21;;;;;;;1.50;1.10;;;5.90;99.90;;;;;;5005913;28;20092;-83
2023/12/06 05:45:48;;;;;;;2.25;1.38;;;5.90;99.90;;;;;;5014995;28;20625;-82
2023/12/06 05:48:15;;;;;;;2.08;1.17;;;5.80;99.90;;;;;;5017307;28;20105;-83
2023/12/06 05:50:42;;;;;;;2.42;1.33;;;5.80;99.90;;;;;;5015066;28;20137;-83
2023/12/06 05:53:09;;;;;;;5.95;2.30;;;5.80;99.90;;;;;;5017240;28;20122;-81
2023/12/06 05:55:35;;;;;;;5.70;1.20;;;5.80;99.90;;;;;;5018036;28;20046;-83
2023/12/06 05:58:02;;;;;;;3.25;1.67;;;5.70;99.90;;;;;;5014424;28;20050;-82
2023/12/06 06:00:30;;;;;;;1.85;1.50;;;5.80;99.90;;;;;;5018969;28;20045;-83
2023/12/06 06:02:58;;;;;;;2.53;1.30;;;5.80;99.90;;;;;;5014797;28;20043;-82
2023/12/06 06:05:25;;;;;;;5.00;1.23;;;5.80;99.90;;;;;;5021885;28;20038;-82
2023/12/06 06:07:52;;;;;;;3.17;1.23;;;5.80;99.90;;;;;;5023485;28;20489;-82
2023/12/06 06:10:19;;;;;;;4.63;1.48;;;5.80;99.90;;;;;;5022610;28;20074;-81
2023/12/06 06:12:45;;;;;;;4.15;1.38;;;5.80;99.90;;;;;;5025477;28;20060;-80
2023/12/06 06:15:13;;;;;;;3.65;1.63;;;5.70;99.90;;;;;;5015600;28;20073;-82
2023/12/06 06:17:40;;;;;;;3.65;1.20;;;5.70;99.90;;;;;;5016503;28;20049;-82
2023/12/06 06:20:08;;;;;;;2.28;1.33;;;5.70;99.90;;;;;;5015287;28;20093;-83
2023/12/06 06:22:34;;;;;;;4.18;1.10;;;5.70;99.90;;;;;;5013052;28;20072;-80
2023/12/06 06:25:01;;;;;;;4.70;1.40;;;5.80;99.90;;;;;;5013604;28;20046;-82
2023/12/06 06:27:28;;;;;;;5.28;1.13;;;5.80;99.90;;;;;;5014786;28;20092;-83
2023/12/06 06:29:55;;;;;;;4.78;1.45;;;5.80;99.90;;;;;;5017841;28;20477;-83
2023/12/06 06:32:22;;;;;;;6.00;2.50;;;5.80;99.90;;;;;;5015029;28;20049;-83
2023/12/06 06:34:49;;;;;;;3.53;1.80;;;5.80;99.90;;;;;;5013240;28;20046;-84
2023/12/06 06:37:16;;;;;;;3.63;1.95;;;5.80;99.90;;;;;;4997826;28;20054;-82
2023/12/06 06:39:43;;;;;;;1.23;1.13;;;5.80;99.90;;;;;;5012404;28;20129;-83
2023/12/06 06:42:10;;;;;;;2.17;1.08;;;5.80;99.90;;;;;;5020557;28;20133;-80
2023/12/06 06:44:37;;;;;;;2.25;1.35;;;5.80;99.90;;;;;;5012678;28;20046;-83
2023/12/06 06:47:22;;;;;;;2.20;1.40;;;5.80;99.90;;;;;;5020285;28;20078;-83
2023/12/06 06:49:49;;;;;;;2.42;1.35;;;5.90;99.90;;;;;;5012332;28;20057;-83
2023/12/06 06:52:16;;;;;;;5.35;1.35;;;5.90;99.90;;;;;;5015061;28;20046;-83
2023/12/06 06:54:42;;;;;;;6.05;2.08;;;5.80;99.90;;;;;;5012485;28;20046;-83
2023/12/06 06:57:09;;;;;;;4.38;1.40;;;5.80;99.90;;;;;;5016550;28;20054;-83
2023/12/06 06:59:36;;;;;;;2.38;1.33;;;5.80;99.90;;;;;;5014030;28;20096;-82
2023/12/06 07:02:03;;;;;;;3.85;1.58;;;5.90;99.90;;;;;;5015944;28;20047;-83
2023/12/06 07:04:31;;;;;;;3.40;1.30;;;5.90;99.90;;;;;;5020404;28;20042;-83
2023/12/06 07:06:58;;;;;;;3.20;1.73;;;5.90;99.90;;;;;;4997456;28;20133;-83
2023/12/06 07:09:25;;;;;;;3.63;1.33;;;5.90;99.90;;;;;;5018783;28;20052;-81
2023/12/06 07:11:51;;;;;;;1.42;0.93;;;5.90;99.90;;;;;;5016719;28;20088;-81
2023/12/06 07:14:18;;;;;;;1.42;1.10;;;5.90;99.90;;;;;;5022600;28;20058;-82
2023/12/06 07:16:45;;;;;;;4.47;1.35;;;6.00;99.90;;;;;;5020730;28;20046;-82
2023/12/06 07:19:12;;;;;;;3.17;1.52;;;6.00;99.90;;;;;;5031472;28;20057;-83
2023/12/06 07:21:40;;;;;;;5.22;1.40;;;6.00;99.90;;;;;;5021330;28;20042;-83
2023/12/06 07:24:07;;;;;;;2.00;1.27;;;6.00;99.90;;;;;;5021793;28;20046;-82
2023/12/06 07:26:34;;;;;;;3.60;1.40;;;6.00;99.90;;;;;;5019630;28;20109;-81
2023/12/06 07:29:01;;;;;;;2.15;1.30;;;6.00;99.90;;;;;;5020584;28;20038;-83
2023/12/06 07:31:27;;;;;;;2.05;1.40;;;6.00;99.90;;;;;;5018577;28;20042;-83
2023/12/06 07:33:54;;;;;;;2.60;1.55;;;6.00;99.90;;;;;;5024522;28;20061;-83
2023/12/06 07:36:36;;;;;;;2.78;1.60;;;6.00;99.90;;;;;;5018695;28;20050;-82
2023/12/06 07:39:02;;;;;;;2.50;1.77;;;6.10;99.90;;;;;;5004388;28;20112;-83
2023/12/06 07:41:29;;;;;;;1.65;1.08;;;6.10;99.90;;;;;;5020899;28;20042;-83
2023/12/06 07:43:56;;;;;;;1.90;1.40;;;6.10;99.90;;;;;;5020195;28;20078;-82
2023/12/06 07:46:23;;;;;;;3.15;1.77;;;6.10;99.90;;;;;;5011572;28;20093;-82
2023/12/06 07:48:50;;;;;;;2.70;1.48;;;6.10;99.90;;;;;;5019178;28;20045;-83
2023/12/06 07:51:17;;;;;;;1.67;1.05;;;6.10;99.90;;;;;;5021753;28;20419;-81
2023/12/06 07:53:44;;;;;;;2.10;1.35;;;6.10;99.90;;;;;;5017717;28;20099;-83
2023/12/06 07:56:11;;;;;;;1.48;1.30;;;6.10;99.90;;;;;;5018690;28;20050;-83
2023/12/06 07:58:38;;;;;;;3.25;1.50;;;6.10;99.90;;;;;;5019844;28;20095;-82
2023/12/06 08:01:05;;;;;;;2.92;1.95;;;6.20;99.90;;;;;;5009277;28;20437;-83
2023/12/06 08:03:32;;;;;;;4.15;1.70;;;6.20;99.90;;;;;;5014589;28;20078;-83
2023/12/06 08:06:01;;;;;;;4.38;2.60;;;6.20;99.90;;;;;;5025133;28;20045;-83
2023/12/06 08:08:28;;;;;;;4.68;2.42;;;6.20;99.90;;;;;;5019307;28;20037;-81
2023/12/06 08:10:55;;;;;;;3.75;1.60;;;6.20;99.90;;;;;;5020419;28;20041;-81
2023/12/06 08:13:24;;;;;;;2.17;1.50;;;6.20;99.90;;;;;;5017201;28;20076;-83
2023/12/06 08:15:50;;;;;;;2.92;1.60;;;6.20;99.90;;;;;;5018297;28;20081;-83
2023/12/06 08:18:17;;;;;;;2.72;1.98;;;6.20;99.90;;;;;;5017100;28;20051;-82
2023/12/06 08:20:44;;;;;;;2.25;1.60;;;6.20;99.90;;;;;;5014717;28;20078;-83
2023/12/06 08:23:11;;;;;;;6.35;2.03;;;6.20;99.90;;;;;;5006070;28;20105;-83
2023/12/06 08:25:40;;;;;;;3.90;1.95;;;6.30;99.90;;;;;;5026279;28;20050;-82
2023/12/06 08:28:06;;;;;;;4.65;1.58;;;6.20;99.90;;;;;;5005611;28;20073;-83
2023/12/06 08:30:33;;;;;;;2.95;1.70;;;6.20;99.90;;;;;;5020290;28;20096;-82
2023/12/06 08:33:00;;;;;;;3.25;1.83;;;6.30;99.90;;;;;;5025506;28;20050;-82
2023/12/06 08:35:27;;;;;;;3.83;2.17;;;6.30;99.90;;;;;;5015569;28;20137;-83
2023/12/06 08:37:54;;;;;;;2.58;1.90;;;6.30;99.90;;;;;;5028730;28;20046;-83
2023/12/06 08:40:24;;;;;;;7.07;1.98;;;6.30;99.90;;;;;;5018382;28;20074;-81
2023/12/06 08:42:51;;;;;;;3.22;1.80;;;6.30;99.90;;;;;;5017602;28;20046;-82
2023/12/06 08:45:18;;;;;;;4.07;1.80;;;6.20;99.90;;;;;;5015603;28;20069;-83
2023/12/06 08:47:46;;;;;;;4.65;2.10;;;6.20;99.90;;;;;;5024100;28;20096;-83
2023/12/06 08:50:14;;;;;;;2.50;1.85;;;6.20;99.90;;;;;;5017601;28;20133;-82
2023/12/06 08:52:44;;;;;;;5.88;2.20;;;6.30;99.90;;;;;;4996839;28;20052;-82
2023/12/06 08:55:12;;;;;;;3.03;1.80;;;6.30;99.90;;;;;;5017437;28;20060;-82
2023/12/06 08:57:39;;;;;;;2.67;1.67;;;6.30;99.90;;;;;;5012947;28;20080;-83
2023/12/06 09:00:11;;;;;;;1.92;1.55;;;6.30;99.90;;;;;;5004907;28;20088;-82
2023/12/06 09:02:40;;;;;;;4.57;1.70;;;6.40;99.90;;;;;;5015454;28;20053;-83
2023/12/06 09:05:10;;;;;;;3.97;1.67;;;6.40;99.90;;;;;;5019844;28;20089;-83
2023/12/06 09:07:37;;;;;;;2.13;1.43;;;6.40;99.90;;;;;;5019888;28;20041;-82
2023/12/06 09:10:04;;;;;;;2.47;1.60;;;6.50;99.90;;;;;;5017423;28;20098;-82
2023/12/06 09:12:31;;;;;;;2.72;1.80;;;6.50;99.90;;;;;;5021415;28;20107;-82
2023/12/06 09:14:58;;;;;;;4.25;2.03;;;6.50;99.90;;;;;;5017531;28;20050;-83
2023/12/06 09:17:24;;;;;;;3.63;1.55;;;6.50;99.90;;;;;;5019179;28;20065;-83
2023/12/06 09:19:52;;;;;;;2.58;1.73;;;6.50;99.90;;;;;;5015420;28;20054;-82
2023/12/06 09:22:21;;;;;;;3.00;1.63;;;6.50;99.90;;;;;;4999210;28;20050;-83
2023/12/06 09:24:48;;;;;;;2.30;1.50;;;6.50;99.90;;;;;;5015792;28;20045;-83
2023/12/06 09:27:18;;;;;;;2.55;1.40;;;6.60;99.90;;;;;;5020764;28;20050;-82
2023/12/06 09:29:45;;;;;;;;;;;6.60;99.90;;;;;;5013533;28;20121;-83
2023/12/06 09:32:12;;;;;;;1.58;1.25;;;6.60;99.90;;;;;;5015680;28;20323;-83
2023/12/06 09:34:39;;;;;;;1.65;1.40;;;6.60;99.90;;;;;;5013530;28;20050;-81
2023/12/06 09:37:10;;;;;;;1.65;1.10;;;6.70;99.90;;;;;;5017446;28;20046;-84
2023/12/06 09:39:36;;;;;;;2.42;1.52;;;6.70;99.90;;;;;;5018645;28;20045;-83
2023/12/06 09:42:04;;;;;;;2.50;1.00;;;6.70;99.90;;;;;;5015456;28;20046;-83
2023/12/06 09:44:31;;;;;;;3.20;1.30;;;6.70;99.90;;;;;;5013701;28;20042;-83
2023/12/06 09:47:01;;;;;;;2.30;1.40;;;6.70;99.90;;;;;;5017116;28;20073;-83
2023/12/06 09:49:28;;;;;;;2.28;1.40;;;6.70;99.90;;;;;;5014596;28;20050;-83
2023/12/06 09:52:10;;;;;;;3.78;1.23;;;6.70;99.90;;;;;;5018762;28;20076;-82
2023/12/06 09:54:42;;;;;;;2.40;1.30;;;6.70;99.90;;;;;;5016173;28;20050;-83
2023/12/06 09:57:10;;;;;;;1.42;1.20;;;6.70;99.90;;;;;;5012148;28;20057;-84
2023/12/06 09:59:38;;;;;;;3.35;1.20;;;6.70;99.90;;;;;;5019603;28;20085;-83
2023/12/06 10:02:04;;;;;;;1.58;1.30;;;6.70;99.90;;;;;;5013982;28;20050;-84
2023/12/06 10:04:33;;;;;;;1.77;1.02;;;6.70;99.90;;;;;;5028309;28;20046;-82
2023/12/06 10:07:00;;;;;;;1.88;1.02;;;6.70;99.90;;;;;;5018199;28;20038;-83
2023/12/06 10:09:27;;;;;;;1.38;1.20;;;6.70;99.90;;;;;;5017496;28;20100;-81
2023/12/06 10:12:08;;;;;;;3.55;1.67;;;6.70;99.90;;;;;;5016037;28;20518;-81
2023/12/06 10:14:35;;;;;;;2.33;1.73;;;6.70;99.90;;;;;;5029998;28;20054;-84
2023/12/06 10:17:02;;;;;;;2.67;1.50;;;6.70;99.90;;;;;;5024400;28;20128;-84
2023/12/06 10:19:31;;;;;;;2.03;1.40;;;6.70;99.90;;;;;;5015959;28;20061;-84
2023/12/06 10:22:00;;;;;;;2.83;1.73;;;6.70;99.90;;;;;;5015009;28;20488;-83
2023/12/06 10:24:28;;;;;;;4.13;1.63;;;6.70;99.90;;;;;;4997132;28;20414;-82
2023/12/06 10:27:10;;;;;;;2.35;1.52;;;6.70;99.90;;;;;;5016678;28;20046;-82
2023/12/06 10:29:37;;;;;;;3.58;2.20;;;6.70;99.90;;;;;;5012878;28;20123;-83
2023/12/06 10:32:06;;;;;;;2.33;1.85;;;6.80;99.90;;;;;;5016567;28;20049;-83
2023/12/06 10:34:34;;;;;;;4.03;1.90;;;6.80;99.90;;;;;;4994623;28;20524;-81
2023/12/06 10:37:03;;;;;;;1.38;1.20;;;6.80;99.90;;;;;;5016566;28;20120;-82
2023/12/06 10:39:32;;;;;;;5.22;1.73;;;6.90;99.90;;;;;;5011600;28;20066;-84
2023/12/06 10:42:07;;;;;;;1.77;1.10;;;6.90;99.90;;;;;;5016740;28;20106;-83
2023/12/06 10:44:35;;;;;;;3.25;1.55;;;6.90;99.90;;;;;;5012679;28;20076;-83
2023/12/06 10:47:04;;;;;;;2.92;1.80;;;6.90;99.90;;;;;;5002634;28;20088;-83
2023/12/06 10:49:37;;;;;;;2.17;1.55;;;7.00;99.90;;;;;;5019327;28;20045;-82
2023/12/06 10:52:06;;;;;;;3.13;1.70;;;7.00;99.90;;;;;;5015081;28;20049;-83
2023/12/06 10:54:34;;;;;;;2.40;2.03;;;7.00;99.90;;;;;;5008466;28;20061;-83
2023/12/06 10:57:03;;;;;;;2.88;2.00;;;7.00;99.90;;;;;;5017520;28;20127;-83
2023/12/06 10:59:32;;;;;;;4.30;1.93;;;7.10;99.90;;;;;;5019314;28;20077;-82
2023/12/06 11:02:01;;;;;;;5.55;1.90;;;7.10;99.90;;;;;;5017941;28;20050;-83
2023/12/06 11:04:33;;;;;;;2.92;1.80;;;7.10;99.90;;;;;;5017948;28;20058;-80
2023/12/06 11:07:28;;;;;;;3.65;1.67;;;7.20;99.90;;;;;;5000095;28;20398;-82
2023/12/06 11:10:36;;;;;;;3.28;2.10;;;7.20;99.90;;;;;;5014868;28;20049;-83
2023/12/06 11:13:20;;;;;;;3.40;1.58;;;7.30;99.90;;;;;;5008104;28;20050;-82
2023/12/06 11:16:00;;;;;;;7.35;2.05;;;7.30;99.90;;;;;;5012957;28;20053;-83
2023/12/06 11:18:38;;;;;;;3.55;1.88;;;7.40;99.90;;;;;;5019915;28;20085;-82
2023/12/06 11:21:05;;;;;;;4.15;2.10;;;7.40;99.90;;;;;;5017637;28;20053;-82
2023/12/06 11:23:31;;;;;;;4.15;2.28;;;7.40;99.90;;;;;;5019746;28;20054;-82
2023/12/06 11:26:00;;;;;;;4.63;1.90;;;7.50;99.90;;;;;;5018253;28;20494;-80
2023/12/06 11:28:27;;;;;;;4.10;2.40;;;7.50;99.90;;;;;;5014950;28;20477;-80
2023/12/06 11:30:56;;;;;;;3.72;2.53;;;7.50;99.90;;;;;;5017866;28;20041;-83
2023/12/06 11:33:24;;;;;;;5.10;2.78;;;7.50;99.90;;;;;;5014343;28;20056;-82
2023/12/06 11:35:53;;;;;;;4.57;2.78;;;7.50;99.90;;;;;;5017716;28;20046;-82
2023/12/06 11:38:31;;;;;;;3.47;2.30;;;7.50;99.90;;;;;;5017068;28;20050;-83
2023/12/06 11:40:58;;;;;;;4.05;2.83;;;7.50;99.90;;;;;;5021975;28;20057;-82
2023/12/06 11:43:37;;;;;;;4.78;2.10;;;7.60;99.90;;;;;;4999811;28;20057;-82
2023/12/06 11:46:08;;;;;;;2.95;2.30;;;7.60;99.90;;;;;;5020613;28;20414;-82
2023/12/06 11:48:37;;;;;;;4.13;2.30;;;7.60;99.90;;;;;;5026287;28;20046;-83
2023/12/06 11:51:05;;;;;;;3.95;2.20;;;7.60;99.90;;;;;;5018609;28;20046;-82
2023/12/06 11:53:36;;;;;;;4.65;2.53;;;7.60;99.90;;;;;;5019209;28;20555;-82
2023/12/06 11:56:04;;;;;;;6.72;3.38;;;7.70;99.90;;;;;;5023771;28;20088;-83
2023/12/06 11:58:36;;;;;;;5.15;3.15;;;7.70;99.90;;;;;;5020785;28;20069;-83
2023/12/06 12:01:03;;;;;;;4.50;3.38;;;7.70;99.90;;;;;;5017319;28;20553;-84
2023/12/06 12:03:31;;;;;;;6.72;2.90;;;7.70;99.90;;;;;;5020135;28;20058;-83
2023/12/06 12:05:58;;;;;;;4.05;2.30;;;7.80;99.90;;;;;;5020045;28;20046;-82
2023/12/06 12:08:27;;;;;;;4.55;2.05;;;7.80;99.90;;;;;;5023172;28;20056;-83
2023/12/06 12:10:54;;;;;;;3.90;2.72;;;7.80;99.90;;;;;;5021637;28;20080;-83
2023/12/06 12:13:25;;;;;;;3.53;2.60;;;7.90;99.90;;;;;;5018927;28;20046;-83
2023/12/06 12:15:53;;;;;;;4.43;3.10;;;7.90;99.90;;;;;;5021773;28;20084;-83
2023/12/06 12:18:20;;;;;;;4.35;2.97;;;7.90;99.90;;;;;;5018662;28;20054;-81
2023/12/06 12:20:47;;;;;;;5.32;2.88;;;7.90;99.90;;;;;;5023623;28;20049;-83
2023/12/06 12:23:14;;;;;;;4.63;2.40;;;7.90;99.90;;;;;;5015328;28;20083;-83
2023/12/06 12:25:49;;;;;;;3.97;2.33;;;7.90;99.90;;;;;;5020760;28;20037;-83
2023/12/06 12:28:20;;;;;;;3.72;2.13;;;7.90;99.90;;;;;;5013078;28;20497;-82
2023/12/06 12:30:50;;;;;;;6.70;2.53;;;8.00;99.90;;;;;;5015741;28;20053;-82
2023/12/06 12:33:18;;;;;;;3.95;2.13;;;8.00;99.90;;;;;;5012471;28;20045;-83
2023/12/06 12:35:45;;;;;;;4.60;2.42;;;8.00;99.90;;;;;;5018076;28;20061;-83
2023/12/06 12:38:12;;;;;;;4.00;2.60;;;8.00;99.90;;;;;;5010263;28;20523;-83
2023/12/06 12:40:41;;;;;;;3.20;2.08;;;8.10;99.90;;;;;;5020558;28;20110;-81
2023/12/06 12:43:10;;;;;;;2.80;2.22;;;8.10;99.90;;;;;;5017863;28;20085;-83
2023/12/06 12:45:38;;;;;;;2.28;1.83;;;8.10;99.90;;;;;;5019918;28;20069;-80
2023/12/06 12:48:06;;;;;;;3.00;1.98;;;8.00;99.90;;;;;;5003818;28;20046;-83
2023/12/06 12:50:33;;;;;;;4.15;2.30;;;8.00;99.90;;;;;;5017188;28;20053;-80
2023/12/06 12:53:01;;;;;;;3.40;2.28;;;8.10;99.90;;;;;;5020641;28;20046;-79
2023/12/06 12:55:27;;;;;;;3.45;2.03;;;8.00;99.90;;;;;;5006954;28;20489;-83
2023/12/06 12:57:56;;;;;;;3.70;2.38;;;8.00;99.90;;;;;;5017401;28;20077;-82
2023/12/06 13:00:25;;;;;;;6.13;2.38;;;8.00;99.90;;;;;;5019226;28;20498;-83
2023/12/06 13:02:56;;;;;;;5.55;2.80;;;8.00;99.90;;;;;;5017088;28;20103;-83